Terminal Aerodrome Forecast
Issued by NWS Austin/San Antonio, TX

Home | Current Version | Previous Version | Text Only | Print | Product List | Glossary On
Versions: 1 2 3 4 5 6 7 8 9 10 11 12 13 14 15 16 17 18 19 20 21 22 23 24 25 26
774
FTUS44 KEWX 172328
TAFDRT
TAF
KDRT 172328Z 1800/1824 31007KT P6SM VCSH OVC010
     FM181000 31007KT P6SM OVC012
     FM181500 32006KT P6SM FEW012 OVC035=

USA.gov is the U.S. government's official web portal to all federal, state and local government web resources and services.